Time;durP1;ratioP1;P1;durP2;ratioP2;P2;SDS_P1;SDS_P2;PMS_P1;PMS_P2;Temp;Humidity;BMP_temperature;BMP_pressure;BME280_temperature;BME280_humidity;BME280_pressure;Samples;Min_cycle;Max_cycle;Signal;HPM_P1;HPM_P2
2023/10/04 00:00:21;;;;;;;0.30;0.30;;;;;;;14.26;100.00;101304.47;5088144;28;20082;-60
2023/10/04 00:02:52;;;;;;;0.30;0.30;;;;;;;14.23;100.00;101299.19;5086781;28;20037;-60
2023/10/04 00:05:20;;;;;;;0.40;0.40;;;;;;;14.23;100.00;101301.88;5071987;28;20024;-60
2023/10/04 00:07:47;;;;;;;0.30;0.30;;;;;;;14.19;100.00;101301.06;5081564;28;20051;-60
2023/10/04 00:10:14;;;;;;;0.40;0.40;;;;;;;14.14;100.00;101307.44;5082242;28;20480;-60
2023/10/04 00:12:44;;;;;;;0.30;0.30;;;;;;;14.11;100.00;101296.81;5085898;28;20039;-60
2023/10/04 00:15:12;;;;;;;0.30;0.30;;;;;;;14.10;100.00;101301.28;5086860;28;20411;-60
2023/10/04 00:17:42;;;;;;;0.30;0.30;;;;;;;14.06;100.00;101290.72;5077227;28;20032;-60
2023/10/04 00:20:17;;;;;;;0.30;0.30;;;;;;;14.15;100.00;101304.72;5083180;28;20080;-60
2023/10/04 00:22:46;;;;;;;0.30;0.30;;;;;;;14.13;100.00;101305.69;5084155;28;20024;-60
2023/10/04 00:25:16;;;;;;;0.30;0.30;;;;;;;14.09;100.00;101304.91;5087826;28;20088;-60
2023/10/04 00:27:43;;;;;;;0.40;0.40;;;;;;;14.04;100.00;101300.56;5077859;28;20020;-60
2023/10/04 00:30:14;;;;;;;0.30;0.30;;;;;;;13.94;100.00;101309.75;5087991;28;20085;-61
2023/10/04 00:32:39;;;;;;;0.40;0.40;;;;;;;13.95;100.00;101314.22;5086495;28;20106;-60
2023/10/04 00:35:09;;;;;;;0.40;0.40;;;;;;;13.93;100.00;101303.56;5090901;28;20096;-60
2023/10/04 00:37:35;;;;;;;0.40;0.40;;;;;;;13.95;100.00;101312.38;5087927;28;20030;-60
2023/10/04 00:40:01;;;;;;;0.40;0.40;;;;;;;13.93;100.00;101302.66;5091005;28;20203;-60
2023/10/04 00:42:26;;;;;;;0.30;0.30;;;;;;;13.92;100.00;101296.41;5090797;28;20512;-60
2023/10/04 00:44:54;;;;;;;0.40;0.40;;;;;;;13.93;100.00;101291.97;5079861;28;20032;-60
2023/10/04 00:47:21;;;;;;;0.40;0.40;;;;;;;13.92;100.00;101295.56;5072108;28;20073;-60
2023/10/04 00:49:46;;;;;;;0.40;0.40;;;;;;;13.90;100.00;101294.72;5088726;28;20383;-60
2023/10/04 00:52:13;;;;;;;0.30;0.30;;;;;;;13.87;100.00;101292.13;5083163;28;20035;-60
2023/10/04 00:54:40;;;;;;;0.30;0.30;;;;;;;13.82;100.00;101283.34;5090930;28;20637;-60
2023/10/04 00:57:10;;;;;;;0.30;0.30;;;;;;;13.74;100.00;101285.34;5085922;28;20445;-60
2023/10/04 00:59:35;;;;;;;0.30;0.30;;;;;;;13.75;100.00;101287.09;5090454;28;20020;-60
2023/10/04 01:02:01;;;;;;;0.30;0.30;;;;;;;13.74;100.00;101288.00;5091771;28;20047;-60
2023/10/04 01:04:27;;;;;;;0.30;0.30;;;;;;;13.75;100.00;101293.31;5077940;28;20444;-61
2023/10/04 01:06:52;;;;;;;0.30;0.30;;;;;;;13.77;100.00;101301.31;5088954;28;20023;-60
2023/10/04 01:09:20;;;;;;;0.32;0.32;;;;;;;13.77;100.00;101298.63;5091686;28;20476;-60
2023/10/04 01:11:47;;;;;;;0.38;0.38;;;;;;;13.79;100.00;101288.78;5088758;28;20411;-60
2023/10/04 01:14:24;;;;;;;0.32;0.32;;;;;;;13.79;100.00;101289.63;5092007;28;20435;-61
2023/10/04 01:16:51;;;;;;;0.40;0.40;;;;;;;13.77;100.00;101290.59;5088440;28;20032;-60
2023/10/04 01:19:17;;;;;;;0.40;0.40;;;;;;;13.76;100.00;101297.75;5090667;28;20028;-60
2023/10/04 01:21:42;;;;;;;0.40;0.40;;;;;;;13.77;100.00;101293.28;5091406;28;20502;-60
2023/10/04 01:24:09;;;;;;;0.30;0.30;;;;;;;13.78;100.00;101303.94;5091614;28;20127;-60
2023/10/04 01:26:36;;;;;;;0.40;0.40;;;;;;;13.72;100.00;101295.19;5087460;28;20027;-60
2023/10/04 01:29:08;;;;;;;0.30;0.30;;;;;;;13.61;100.00;101289.22;5090703;28;20383;-60
2023/10/04 01:31:34;;;;;;;0.40;0.40;;;;;;;13.64;100.00;101297.19;5090984;28;20039;-60
2023/10/04 01:33:59;;;;;;;0.40;0.40;;;;;;;13.62;100.00;101299.00;5091242;28;20028;-60
2023/10/04 01:36:25;;;;;;;0.30;0.30;;;;;;;13.65;100.00;101290.91;5084595;28;20035;-61
2023/10/04 01:38:51;;;;;;;0.30;0.30;;;;;;;13.64;100.00;101283.81;5091236;28;20036;-60
2023/10/04 01:41:17;;;;;;;0.30;0.30;;;;;;;13.57;100.00;101276.84;5090716;28;20035;-58
2023/10/04 01:43:43;;;;;;;0.30;0.30;;;;;;;13.59;100.00;101291.06;5091001;28;20019;-58
2023/10/04 01:46:08;;;;;;;0.40;0.40;;;;;;;13.58;100.00;101294.63;5073981;28;20770;-58
2023/10/04 01:48:34;;;;;;;0.40;0.40;;;;;;;13.57;100.00;101288.44;5070755;28;20025;-58
2023/10/04 01:51:03;;;;;;;0.30;0.30;;;;;;;13.56;100.00;101286.66;5070532;28;20032;-58
2023/10/04 01:53:29;;;;;;;0.28;0.28;;;;;;;13.54;100.00;101292.97;5087726;28;20070;-58
2023/10/04 01:55:55;;;;;;;0.40;0.40;;;;;;;13.53;100.00;101288.53;5085750;28;20059;-58
2023/10/04 01:58:23;;;;;;;0.40;0.40;;;;;;;13.51;100.00;101288.56;5089416;28;20051;-58
2023/10/04 02:00:53;;;;;;;0.40;0.40;;;;;;;13.41;100.00;101279.00;5088469;28;20472;-58
2023/10/04 02:03:20;;;;;;;0.40;0.40;;;;;;;13.39;100.00;101293.34;5082863;28;20501;-58
2023/10/04 02:05:48;;;;;;;0.40;0.40;;;;;;;13.28;100.00;101298.06;5068364;28;20020;-58
2023/10/04 02:08:15;;;;;;;0.40;0.40;;;;;;;13.15;100.00;101298.34;5074572;28;20019;-58
2023/10/04 02:10:46;;;;;;;0.40;0.40;;;;;;;13.04;100.00;101291.47;5080019;28;20045;-59
2023/10/04 02:13:15;;;;;;;0.40;0.40;;;;;;;12.97;100.00;101301.38;5050375;28;20033;-58
2023/10/04 02:15:46;;;;;;;0.40;0.40;;;;;;;12.84;100.00;101305.22;5050614;28;20043;-58
2023/10/04 02:18:12;;;;;;;0.50;0.50;;;;;;;12.83;100.00;101310.59;5037926;28;20038;-58
2023/10/04 02:20:37;;;;;;;0.47;0.47;;;;;;;12.80;100.00;101314.19;5066511;28;20132;-58
2023/10/04 02:23:07;;;;;;;0.43;0.43;;;;;;;12.86;100.00;101314.09;5069924;28;20037;-58
2023/10/04 02:25:33;;;;;;;0.40;0.40;;;;;;;12.90;100.00;101305.09;5070257;28;20032;-57
2023/10/04 02:28:03;;;;;;;0.50;0.50;;;;;;;12.92;100.00;101305.06;5070057;28;20122;-58
2023/10/04 02:30:29;;;;;;;0.40;0.40;;;;;;;12.93;100.00;101313.03;5056809;28;20477;-59
2023/10/04 02:32:54;;;;;;;0.30;0.30;;;;;;;12.92;100.00;101302.38;5055489;28;20043;-58
2023/10/04 02:35:27;;;;;;;0.32;0.32;;;;;;;12.88;100.00;101322.94;5069906;28;20028;-58
2023/10/04 02:37:59;;;;;;;0.40;0.40;;;;;;;12.79;100.00;101311.56;5069129;28;20028;-58
2023/10/04 02:40:27;;;;;;;0.50;0.50;;;;;;;12.61;100.00;101318.16;5063157;28;20024;-58
2023/10/04 02:42:58;;;;;;;0.40;0.40;;;;;;;12.72;100.00;101316.16;5069872;28;20031;-58
2023/10/04 02:45:29;;;;;;;0.40;0.40;;;;;;;12.61;100.00;101318.16;5069406;28;20125;-58
2023/10/04 02:47:55;;;;;;;0.50;0.50;;;;;;;12.54;100.00;101313.84;5067206;28;20029;-58
2023/10/04 02:50:23;;;;;;;0.40;0.40;;;;;;;12.49;100.00;101317.50;5068683;28;20039;-58
2023/10/04 02:52:50;;;;;;;0.40;0.40;;;;;;;12.41;100.00;101317.69;5068608;28;20596;-58
2023/10/04 02:55:18;;;;;;;0.50;0.50;;;;;;;12.40;100.00;101323.94;5068247;28;20028;-58
2023/10/04 02:57:50;;;;;;;0.40;0.40;;;;;;;12.40;100.00;101320.38;5065062;28;20024;-58
2023/10/04 03:00:19;;;;;;;0.50;0.50;;;;;;;12.35;100.00;101320.47;5067212;28;20027;-59
2023/10/04 03:02:46;;;;;;;0.40;0.40;;;;;;;12.31;100.00;101321.44;5065902;28;20028;-59
2023/10/04 03:05:14;;;;;;;0.40;0.40;;;;;;;12.28;100.00;101329.50;5054984;28;20048;-58
2023/10/04 03:07:41;;;;;;;0.50;0.50;;;;;;;12.25;100.00;101329.56;5067537;28;20059;-59
2023/10/04 03:10:07;;;;;;;0.50;0.50;;;;;;;12.22;100.00;101324.28;5069704;28;20028;-58
2023/10/04 03:12:33;;;;;;;0.50;0.50;;;;;;;12.25;100.00;101320.66;5082040;28;20032;-57
2023/10/04 03:14:58;;;;;;;0.40;0.40;;;;;;;12.10;100.00;101327.16;5087804;28;20042;-58
2023/10/04 03:17:24;;;;;;;0.50;0.50;;;;;;;11.99;100.00;101315.81;5088062;28;20020;-58
2023/10/04 03:19:51;;;;;;;0.50;0.50;;;;;;;11.99;100.00;101326.50;5085873;28;20032;-58
2023/10/04 03:22:19;;;;;;;0.50;0.50;;;;;;;12.00;100.00;101328.22;5069079;28;20158;-58
2023/10/04 03:24:46;;;;;;;0.40;0.40;;;;;;;12.05;100.00;101330.81;5088305;28;20095;-58
2023/10/04 03:27:12;;;;;;;0.50;0.50;;;;;;;12.06;100.00;101337.94;5085622;28;20163;-59
2023/10/04 03:29:39;;;;;;;0.47;0.47;;;;;;;12.07;100.00;101345.91;5088343;28;20514;-58
2023/10/04 03:32:05;;;;;;;0.50;0.50;;;;;;;12.09;100.00;101343.19;5088423;28;20073;-58
2023/10/04 03:34:30;;;;;;;0.40;0.40;;;;;;;12.07;100.00;101340.56;5084524;28;20036;-58
2023/10/04 03:37:07;;;;;;;0.50;0.50;;;;;;;12.03;100.00;101344.19;5069333;28;20050;-58
2023/10/04 03:39:33;;;;;;;0.40;0.40;;;;;;;12.01;100.00;101345.97;5087559;28;20500;-58
2023/10/04 03:41:59;;;;;;;0.50;0.50;;;;;;;12.02;100.00;101354.88;5089173;28;20036;-58
2023/10/04 03:44:25;;;;;;;0.50;0.50;;;;;;;12.01;100.00;101356.66;5074281;28;20036;-58
2023/10/04 03:46:53;;;;;;;0.50;0.50;;;;;;;11.98;100.00;101354.03;5087128;28;20036;-58
2023/10/04 03:49:19;;;;;;;0.50;0.50;;;;;;;11.94;100.00;101341.69;5088112;28;20031;-58
2023/10/04 03:51:45;;;;;;;0.50;0.50;;;;;;;11.93;100.00;101347.03;5087569;28;20024;-59
2023/10/04 03:54:12;;;;;;;0.40;0.40;;;;;;;11.88;100.00;101339.09;5081777;28;20476;-58
2023/10/04 03:56:41;;;;;;;0.50;0.50;;;;;;;11.83;100.00;101340.97;5088016;28;20035;-58
2023/10/04 03:59:08;;;;;;;0.40;0.40;;;;;;;11.82;100.00;101341.88;5074388;28;20024;-60
2023/10/04 04:01:33;;;;;;;0.50;0.50;;;;;;;11.88;100.00;101339.09;5068958;28;20029;-58
2023/10/04 04:04:03;;;;;;;0.50;0.50;;;;;;;11.97;100.00;101341.63;5077596;28;20028;-58
2023/10/04 04:06:29;;;;;;;0.43;0.43;;;;;;;12.08;100.00;101336.09;5087943;28;20576;-58
2023/10/04 04:08:56;;;;;;;0.50;0.50;;;;;;;12.11;100.00;101341.41;5087567;28;20028;-58
2023/10/04 04:11:22;;;;;;;0.40;0.40;;;;;;;12.06;100.00;101340.59;5079289;28;20101;-58
2023/10/04 04:13:48;;;;;;;0.50;0.50;;;;;;;12.02;100.00;101336.19;5060737;28;20105;-58
2023/10/04 04:16:17;;;;;;;0.43;0.43;;;;;;;12.07;100.00;101345.91;5065307;28;20059;-58
2023/10/04 04:18:44;;;;;;;0.50;0.50;;;;;;;12.07;100.00;101351.22;5067729;28;20048;-58
2023/10/04 04:21:09;;;;;;;0.50;0.50;;;;;;;12.01;100.00;101345.97;5051801;28;20029;-58
2023/10/04 04:23:35;;;;;;;0.50;0.50;;;;;;;11.89;100.00;101335.56;5071840;28;20518;-58
2023/10/04 04:26:01;;;;;;;0.57;0.57;;;;;;;11.81;100.00;101316.13;5072455;28;20028;-58
2023/10/04 04:28:27;;;;;;;0.40;0.40;;;;;;;11.82;100.00;101339.22;5065967;28;20039;-58
2023/10/04 04:30:53;;;;;;;0.50;0.50;;;;;;;11.76;100.00;101337.50;5069335;28;20033;-58
2023/10/04 04:33:22;;;;;;;0.50;0.50;;;;;;;11.69;100.00;101341.22;5071990;28;20107;-57
2023/10/04 04:35:51;;;;;;;0.40;0.40;;;;;;;11.65;100.00;101331.50;5071435;28;20500;-58
2023/10/04 04:38:20;;;;;;;0.40;0.40;;;;;;;11.67;100.00;101339.47;5069162;28;20048;-58
2023/10/04 04:40:48;;;;;;;0.50;0.50;;;;;;;11.61;100.00;101334.19;5070615;28;20020;-58
2023/10/04 04:45:53;;;;;;;0.40;0.40;;;;;;;11.61;100.00;101339.53;5070139;28;20058;-58
2023/10/04 04:48:26;;;;;;;0.50;0.50;;;;;;;11.60;100.00;101351.06;5060103;28;20028;-58
2023/10/04 04:50:54;;;;;;;0.40;0.40;;;;;;;11.63;100.00;101345.72;5069347;28;20115;-58
2023/10/04 04:53:22;;;;;;;0.40;0.40;;;;;;;11.66;100.00;101345.69;5061009;28;20034;-58
2023/10/04 04:55:51;;;;;;;0.50;0.50;;;;;;;11.69;100.00;101348.31;5070329;28;20075;-58
2023/10/04 04:58:21;;;;;;;0.50;0.50;;;;;;;11.66;100.00;101343.03;5070802;28;20085;-58
2023/10/04 05:00:50;;;;;;;0.50;0.50;;;;;;;11.56;100.00;101352.03;5067704;28;20032;-58
2023/10/04 05:03:21;;;;;;;0.45;0.45;;;;;;;11.55;100.00;101366.25;5061802;28;20116;-59
2023/10/04 05:05:49;;;;;;;0.50;0.50;;;;;;;11.50;100.00;101357.44;5071613;28;20395;-58
2023/10/04 05:08:17;;;;;;;0.50;0.50;;;;;;;11.40;100.00;101353.19;5071588;28;20036;-58
2023/10/04 05:10:44;;;;;;;0.50;0.50;;;;;;;11.37;100.00;101350.53;5070422;28;20098;-61
2023/10/04 05:13:13;;;;;;;0.57;0.57;;;;;;;11.31;100.00;101350.63;5071408;28;20032;-61
2023/10/04 05:15:42;;;;;;;0.50;0.50;;;;;;;11.30;100.00;101354.22;5073962;28;20024;-61
2023/10/04 05:18:11;;;;;;;0.50;0.50;;;;;;;11.27;100.00;101349.81;5081185;28;20119;-61
2023/10/04 05:20:38;;;;;;;0.50;0.50;;;;;;;11.26;100.00;101347.16;5089541;28;20020;-61
2023/10/04 05:23:04;;;;;;;0.60;0.60;;;;;;;11.24;100.00;101349.84;5084201;28;20125;-61
2023/10/04 05:25:30;;;;;;;0.50;0.50;;;;;;;11.25;100.00;101345.41;5087085;28;20063;-61
2023/10/04 05:28:09;;;;;;;0.45;0.45;;;;;;;11.25;100.00;101351.59;5089869;28;20056;-61
2023/10/04 05:30:37;;;;;;;0.50;0.50;;;;;;;11.24;100.00;101343.63;5088297;28;20020;-61
2023/10/04 05:33:02;;;;;;;0.50;0.50;;;;;;;11.24;100.00;101343.63;5084142;28;20031;-61
2023/10/04 05:35:28;;;;;;;0.52;0.52;;;;;;;11.29;100.00;101348.00;5087171;28;20036;-61
2023/10/04 05:37:54;;;;;;;0.50;0.50;;;;;;;11.33;100.00;101348.84;5089561;28;20051;-61
2023/10/04 05:40:25;;;;;;;0.50;0.50;;;;;;;11.33;100.00;101351.50;5089806;28;20027;-61
2023/10/04 05:42:54;;;;;;;0.50;0.50;;;;;;;11.39;100.00;101354.06;5076107;28;20037;-61
2023/10/04 05:45:25;;;;;;;0.50;0.50;;;;;;;11.45;100.00;101356.66;5079395;28;20032;-61
2023/10/04 05:47:50;;;;;;;0.40;0.40;;;;;;;11.51;100.00;101359.22;5087254;28;20118;-61
2023/10/04 05:50:18;;;;;;;0.50;0.50;;;;;;;11.52;100.00;101361.88;5070276;28;20028;-61
2023/10/04 05:52:50;;;;;;;0.50;0.50;;;;;;;11.52;100.00;101363.63;5076440;28;20051;-61
2023/10/04 05:55:17;;;;;;;0.60;0.60;;;;;;;11.51;100.00;101369.88;5085892;28;20036;-61
2023/10/04 05:57:45;;;;;;;0.50;0.50;;;;;;;11.52;100.00;101363.63;5088341;28;20028;-61
2023/10/04 06:00:33;;;;;;;0.40;0.40;;;;;;;11.67;100.00;101369.66;5078552;28;20386;-61
2023/10/04 06:03:00;;;;;;;0.45;0.45;;;;;;;11.75;100.00;101372.19;5089859;28;20028;-61
2023/10/04 06:05:27;;;;;;;0.50;0.50;;;;;;;11.88;100.00;101365.75;5071638;28;20107;-61
2023/10/04 06:07:54;;;;;;;0.50;0.50;;;;;;;12.04;100.00;101367.28;5086073;28;20032;-61
2023/10/04 06:10:21;;;;;;;0.40;0.40;;;;;;;12.18;100.00;101365.25;5084492;28;20044;-60
2023/10/04 06:12:47;;;;;;;0.50;0.50;;;;;;;12.33;100.00;101364.97;5066405;28;20496;-61
2023/10/04 06:15:16;;;;;;;0.50;0.50;;;;;;;12.41;100.00;101362.16;5052193;28;20079;-61
2023/10/04 06:17:50;;;;;;;0.40;0.40;;;;;;;12.50;100.00;101362.88;5070226;28;20103;-61
2023/10/04 06:20:33;;;;;;;0.40;0.40;;;;;;;12.71;100.00;101372.25;5058569;28;20082;-61
2023/10/04 06:23:01;;;;;;;0.40;0.40;;;;;;;13.33;100.00;101368.31;5052869;28;20420;-61
2023/10/04 06:25:29;;;;;;;0.40;0.40;;;;;;;13.90;100.00;101373.19;5055780;28;20036;-61
2023/10/04 06:27:58;;;;;;;0.30;0.30;;;;;;;13.82;100.00;101379.63;5068642;28;20093;-61
2023/10/04 06:30:26;;;;;;;0.40;0.40;;;;;;;14.04;100.00;101373.69;5065677;28;20024;-61
2023/10/04 06:32:55;;;;;;;0.40;0.40;;;;;;;14.07;100.00;101388.78;5066008;28;20428;-61
2023/10/04 06:35:24;;;;;;;0.40;0.40;;;;;;;13.80;100.00;101376.09;5068462;28;20024;-61
2023/10/04 06:38:07;;;;;;;0.40;0.40;;;;;;;13.57;100.00;101402.50;5068547;28;20494;-61
2023/10/04 06:40:33;;;;;;;0.40;0.40;;;;;;;13.81;100.00;101400.13;5052788;28;20369;-61
2023/10/04 06:43:01;;;;;;;0.40;0.40;;;;;;;14.93;100.00;101400.78;5066167;28;20020;-61
2023/10/04 06:45:27;;;;;;;0.30;0.30;;;;;;;16.55;100.00;101396.53;5064178;28;20034;-61
2023/10/04 06:47:55;;;;;;;0.40;0.40;;;;;;;18.05;87.68;101395.22;5049537;28;20021;-61
2023/10/04 06:50:40;;;;;;;0.20;0.20;;;;;;;19.33;78.03;101411.13;5066302;28;20032;-61
2023/10/04 06:53:06;;;;;;;0.30;0.30;;;;;;;20.51;70.84;101398.97;5068374;28;20025;-61
2023/10/04 06:55:33;;;;;;;0.20;0.20;;;;;;;21.27;64.70;101409.34;5069307;28;20032;-61
2023/10/04 06:58:00;;;;;;;0.20;0.20;;;;;;;22.13;60.66;101408.06;5069312;28;20032;-61
2023/10/04 07:00:31;;;;;;;0.20;0.20;;;;;;;22.83;56.65;101407.44;5064974;28;20154;-61
2023/10/04 07:02:58;;;;;;;0.30;0.30;;;;;;;23.45;53.55;101409.00;5068500;28;20513;-61
2023/10/04 07:05:26;;;;;;;0.20;0.20;;;;;;;24.05;50.94;101406.91;5066614;28;20036;-61
2023/10/04 07:07:54;;;;;;;0.20;0.20;;;;;;;24.57;49.79;101411.47;5063208;28;20029;-61
2023/10/04 07:10:23;;;;;;;0.20;0.20;;;;;;;24.78;48.72;101414.59;5071904;28;20085;-61
2023/10/04 07:12:54;;;;;;;0.20;0.20;;;;;;;25.02;47.70;101429.22;5088167;28;20028;-61
2023/10/04 07:15:20;;;;;;;0.20;0.20;;;;;;;25.37;47.05;101424.91;5083628;28;20024;-61
2023/10/04 07:17:49;;;;;;;0.20;0.20;;;;;;;25.68;45.97;101432.59;5075353;28;20063;-61
2023/10/04 07:20:16;;;;;;;0.20;0.20;;;;;;;26.00;45.12;101430.25;5087946;28;20063;-61
2023/10/04 07:22:43;;;;;;;0.20;0.20;;;;;;;26.30;44.31;101428.00;5085674;28;20024;-61
2023/10/04 07:25:12;;;;;;;0.20;0.20;;;;;;;26.51;44.16;101420.03;5088722;28;20024;-61
2023/10/04 07:27:39;;;;;;;0.10;0.10;;;;;;;26.76;43.40;101425.38;5086897;28;20110;-61
2023/10/04 07:30:07;;;;;;;0.10;0.10;;;;;;;27.02;43.15;101433.28;5071797;28;20048;-58
2023/10/04 07:32:32;;;;;;;0.10;0.10;;;;;;;27.35;42.92;101437.97;5087745;28;20498;-58
2023/10/04 07:34:58;;;;;;;0.20;0.20;;;;;;;27.60;42.20;101440.50;5088688;28;20027;-58
2023/10/04 07:37:23;;;;;;;0.10;0.10;;;;;;;27.84;41.67;101438.47;5087914;28;20031;-58
2023/10/04 07:39:49;;;;;;;0.10;0.10;;;;;;;27.88;42.11;101442.72;5084881;28;20111;-58
2023/10/04 07:42:14;;;;;;;0.10;0.10;;;;;;;27.88;41.28;101439.97;5085871;28;20026;-58
2023/10/04 07:44:40;;;;;;;0.10;0.10;;;;;;;27.37;43.32;101444.19;5077032;28;20115;-58
2023/10/04 07:47:06;;;;;;;0.10;0.10;;;;;;;27.12;43.12;101445.22;5087899;28;20149;-58
2023/10/04 07:49:31;;;;;;;0.10;0.10;;;;;;;27.27;43.00;101442.25;5082918;28;21134;-58
2023/10/04 07:51:58;;;;;;;0.10;0.10;;;;;;;27.09;43.91;101444.59;5071879;28;20029;-58
2023/10/04 07:54:23;;;;;;;0.10;0.10;;;;;;;27.06;43.70;101434.81;5074496;28;20520;-58
2023/10/04 07:56:49;;;;;;;0.10;0.10;;;;;;;27.49;43.41;101431.41;5071558;28;20056;-58
2023/10/04 07:59:17;;;;;;;0.10;0.10;;;;;;;27.49;42.67;101432.28;5087239;28;20036;-58
2023/10/04 08:01:43;;;;;;;0.10;0.10;;;;;;;27.29;43.01;101438.47;5077797;28;20039;-58
2023/10/04 08:04:09;;;;;;;0.10;0.10;;;;;;;27.13;44.34;101435.19;5068608;28;20353;-57
2023/10/04 08:06:40;;;;;;;0.10;0.10;;;;;;;26.91;44.05;101433.25;5068862;28;20036;-58
2023/10/04 08:09:06;;;;;;;0.10;0.10;;;;;;;26.78;44.87;101429.75;5073792;28;20826;-58
2023/10/04 08:11:33;;;;;;;0.10;0.10;;;;;;;26.63;45.72;101433.63;5071218;28;20079;-57
2023/10/04 08:14:07;;;;;;;0.10;0.10;;;;;;;26.88;44.95;101435.34;5069174;28;20052;-58
2023/10/04 08:16:33;;;;;;;0.10;0.10;;;;;;;26.76;45.82;101428.09;5068487;28;20089;-58
2023/10/04 08:18:59;;;;;;;0.10;0.10;;;;;;;26.53;45.78;101434.44;5069311;28;20035;-57
2023/10/04 08:21:25;;;;;;;0.10;0.10;;;;;;;26.66;45.41;101429.81;5073840;28;20020;-57
2023/10/04 08:23:50;;;;;;;0.10;0.10;;;;;;;26.80;46.31;101430.47;5067726;28;20747;-58
2023/10/04 08:26:16;;;;;;;0.10;0.10;;;;;;;26.93;45.73;101433.16;5069466;28;20034;-57
2023/10/04 08:28:42;;;;;;;0.10;0.10;;;;;;;26.52;46.07;101422.66;5066757;28;20035;-58
2023/10/04 08:31:13;;;;;;;0.10;0.10;;;;;;;26.30;47.16;101416.19;5076793;28;20036;-58
2023/10/04 08:33:38;;;;;;;0.10;0.10;;;;;;;26.24;46.30;101425.75;5070669;28;20115;-57
2023/10/04 08:36:09;;;;;;;0.10;0.10;;;;;;;26.39;46.42;101431.91;5068969;28;20058;-57
2023/10/04 08:38:34;;;;;;;0.10;0.10;;;;;;;26.23;45.89;101425.84;5067920;28;20456;-57
2023/10/04 08:41:01;;;;;;;0.10;0.10;;;;;;;26.17;46.85;101415.38;5078208;28;20101;-57
2023/10/04 08:43:27;;;;;;;0.10;0.10;;;;;;;26.66;46.10;101424.34;5085982;28;20752;-57
2023/10/04 08:45:54;;;;;;;0.10;0.10;;;;;;;26.56;45.01;101420.53;5075355;28;20032;-57
2023/10/04 08:48:21;;;;;;;0.00;0.00;;;;;;;26.65;44.71;101418.03;5080152;28;20021;-57
2023/10/04 08:50:49;;;;;;;0.10;0.10;;;;;;;26.55;44.35;101422.44;5081638;28;20025;-57
2023/10/04 08:53:44;;;;;;;0.10;0.10;;;;;;;26.89;45.26;101420.69;5068359;28;20496;-57
2023/10/04 08:56:13;;;;;;;0.10;0.10;;;;;;;26.83;45.63;101426.66;5078894;28;20039;-57
2023/10/04 08:58:43;;;;;;;0.10;0.10;;;;;;;26.68;45.31;101419.63;5087073;28;20471;-58
2023/10/04 09:01:11;;;;;;;0.03;0.03;;;;;;;26.41;44.33;101419.84;5091148;28;20020;-57
2023/10/04 09:03:40;;;;;;;0.10;0.10;;;;;;;26.18;46.10;101411.69;5087168;28;20023;-57
2023/10/04 09:06:10;;;;;;;0.10;0.10;;;;;;;26.13;46.05;101413.91;5071211;28;20073;-57
2023/10/04 09:08:38;;;;;;;0.10;0.10;;;;;;;26.33;45.34;101407.78;5070938;28;20472;-56
2023/10/04 09:11:10;;;;;;;0.10;0.10;;;;;;;26.92;45.40;101417.72;5084092;28;20056;-57
2023/10/04 09:13:44;;;;;;;0.10;0.10;;;;;;;26.99;44.49;101410.81;5077454;28;20020;-57
2023/10/04 09:16:24;;;;;;;0.10;0.10;;;;;;;26.77;44.52;101413.50;5071667;28;20052;-56
2023/10/04 09:19:08;;;;;;;0.10;0.10;;;;;;;26.79;44.64;101414.22;5085634;28;20020;-57
2023/10/04 09:21:38;;;;;;;0.10;0.10;;;;;;;26.87;43.97;101401.72;5085948;28;20020;-57
2023/10/04 09:24:17;;;;;;;0.10;0.10;;;;;;;27.00;43.45;101412.56;5087106;28;20439;-57
2023/10/04 09:26:54;;;;;;;0.03;0.03;;;;;;;27.34;42.87;101403.44;5086010;28;20035;-57
2023/10/04 09:29:33;;;;;;;0.00;0.00;;;;;;;27.72;42.70;101403.97;5073808;28;20044;-57
2023/10/04 09:31:59;;;;;;;0.00;0.00;;;;;;;27.88;42.48;101393.47;5069998;28;20480;-57
2023/10/04 09:34:24;;;;;;;0.08;0.08;;;;;;;27.74;41.46;101407.41;5088654;28;20027;-57
2023/10/04 09:36:54;;;;;;;0.00;0.00;;;;;;;27.60;42.03;101406.78;5088511;28;20108;-57
2023/10/04 09:39:24;;;;;;;0.00;0.00;;;;;;;27.57;41.21;101413.41;5073651;28;20020;-57
2023/10/04 09:41:51;;;;;;;0.00;0.00;;;;;;;27.85;41.04;101401.94;5087520;28;20019;-57
2023/10/04 09:44:29;;;;;;;0.10;0.10;;;;;;;28.47;40.87;101395.84;5078453;28;20040;-57
2023/10/04 09:47:02;;;;;;;0.00;0.00;;;;;;;28.28;41.44;101388.31;5070647;28;20391;-57
2023/10/04 09:49:31;;;;;;;;;;;;;;;28.00;38.36;101399.84;5073329;28;20036;-58
2023/10/04 09:51:58;;;;;;;0.00;0.00;;;;;;;28.11;40.09;101392.47;5080584;28;20267;-59
2023/10/04 09:54:24;;;;;;;0.00;0.00;;;;;;;28.22;39.34;101403.38;5088753;28;20023;-59
2023/10/04 09:56:52;;;;;;;0.00;0.00;;;;;;;27.38;39.98;101409.53;5078730;28;20108;-59
2023/10/04 09:59:20;;;;;;;0.00;0.00;;;;;;;26.38;42.93;101405.56;5074985;28;20050;-59
2023/10/04 10:01:59;;;;;;;0.00;0.00;;;;;;;26.36;43.98;101393.94;5077811;28;20048;-59
2023/10/04 10:04:25;;;;;;;0.00;0.00;;;;;;;26.56;42.56;101399.59;5071556;28;20116;-59
2023/10/04 10:07:16;;;;;;;0.00;0.00;;;;;;;27.09;41.38;101389.97;5070677;28;20016;-59
2023/10/04 10:10:04;;;;;;;0.00;0.00;;;;;;;27.59;41.11;101392.28;5074079;28;20361;-59
2023/10/04 10:12:31;;;;;;;0.00;0.00;;;;;;;27.89;40.75;101387.03;5077010;28;20047;-59
2023/10/04 10:15:00;;;;;;;0.00;0.00;;;;;;;27.88;40.49;101384.41;5070118;28;20682;-59
2023/10/04 10:17:27;;;;;;;0.00;0.00;;;;;;;28.08;39.73;101390.00;5068953;28;20662;-59
2023/10/04 10:19:55;;;;;;;0.00;0.00;;;;;;;27.85;39.47;101387.41;5068889;28;20411;-59
2023/10/04 10:22:20;;;;;;;0.00;0.00;;;;;;;27.86;41.09;101392.72;5070459;28;20030;-60
2023/10/04 10:25:16;;;;;;;0.00;0.00;;;;;;;28.10;39.83;101390.75;5068782;28;20063;-59
2023/10/04 10:27:43;;;;;;;0.00;0.00;;;;;;;28.54;38.70;101388.88;5084753;28;20029;-59
2023/10/04 10:30:09;;;;;;;0.00;0.00;;;;;;;28.53;39.73;101382.53;5073808;28;20085;-59
2023/10/04 10:32:34;;;;;;;0.03;0.03;;;;;;;28.99;39.26;101382.16;5088388;28;20032;-59
2023/10/04 10:35:08;;;;;;;0.00;0.00;;;;;;;28.38;39.43;101379.19;5079478;28;20032;-59
2023/10/04 10:37:38;;;;;;;0.00;0.00;;;;;;;27.42;41.30;101381.84;5070643;28;20039;-60
2023/10/04 10:40:08;;;;;;;0.00;0.00;;;;;;;26.95;41.59;101382.00;5070016;28;20021;-60
2023/10/04 10:43:11;;;;;;;0.10;0.10;;;;;;;26.25;41.72;101375.63;5072686;28;20050;-60
2023/10/04 10:45:37;;;;;;;0.10;0.10;;;;;;;25.51;44.94;101373.03;5069157;28;20100;-60
2023/10/04 10:48:07;;;;;;;0.00;0.00;;;;;;;25.20;44.79;101368.00;5069039;28;20032;-60
2023/10/04 10:50:38;;;;;;;0.10;0.10;;;;;;;25.16;46.91;101377.38;5071422;28;20036;-60
2023/10/04 10:53:05;;;;;;;0.10;0.10;;;;;;;25.97;44.98;101365.03;5079395;28;20038;-60
2023/10/04 10:55:33;;;;;;;0.10;0.10;;;;;;;26.14;42.57;101366.53;5080319;28;20031;-60
2023/10/04 10:57:58;;;;;;;0.00;0.00;;;;;;;26.41;43.43;101378.94;5079109;28;20063;-59
2023/10/04 11:00:26;;;;;;;0.10;0.10;;;;;;;26.70;42.39;101354.88;5069974;28;20020;-60
2023/10/04 11:02:54;;;;;;;0.00;0.00;;;;;;;26.86;41.97;101372.66;5076605;28;20122;-59
2023/10/04 11:05:21;;;;;;;0.08;0.08;;;;;;;26.82;42.31;101378.50;5068520;28;20438;-60
2023/10/04 11:07:52;;;;;;;0.00;0.00;;;;;;;26.36;42.51;101377.56;5071231;28;20043;-60
2023/10/04 11:10:20;;;;;;;0.08;0.08;;;;;;;25.82;44.19;101372.50;5077823;28;20097;-59
2023/10/04 11:12:46;;;;;;;0.00;0.00;;;;;;;26.34;42.92;101374.06;5081013;28;20036;-59
2023/10/04 11:15:13;;;;;;;0.05;0.05;;;;;;;26.52;41.34;101375.38;5068784;28;20028;-59
2023/10/04 11:17:40;;;;;;;0.00;0.00;;;;;;;27.05;40.45;101366.63;5068290;28;20471;-59
2023/10/04 11:20:11;;;;;;;0.00;0.00;;;;;;;27.47;39.04;101365.94;5079069;28;20460;-59
2023/10/04 11:22:41;;;;;;;0.00;0.00;;;;;;;27.17;39.75;101354.69;5080702;28;20031;-59
2023/10/04 11:25:08;;;;;;;0.00;0.00;;;;;;;27.46;40.40;101361.47;5079061;28;20644;-60
2023/10/04 11:27:36;;;;;;;0.00;0.00;;;;;;;28.05;38.96;101349.22;5087268;28;20149;-60
2023/10/04 11:30:05;;;;;;;0.00;0.00;;;;;;;28.70;37.90;101356.44;5083256;28;20036;-59